createdAt,value
2018-02-20T00:02:17.336Z,-0.40
2018-02-20T00:04:47.547Z,-0.40
2018-02-20T00:07:18.115Z,-0.40
2018-02-20T00:09:48.051Z,-0.50
2018-02-20T00:12:19.622Z,-0.70
2018-02-20T00:14:49.935Z,-0.70
2018-02-20T00:17:20.025Z,-0.70
2018-02-20T00:19:51.003Z,-0.60
2018-02-20T00:22:21.952Z,-0.60
2018-02-20T00:24:52.174Z,-0.50
2018-02-20T00:27:22.375Z,-0.50
2018-02-20T00:29:53.056Z,-0.60
2018-02-20T00:32:23.396Z,-0.60
2018-02-20T00:34:53.563Z,-0.60
2018-02-20T00:37:23.839Z,-0.60
2018-02-20T00:39:54.710Z,-0.60
2018-02-20T00:42:25.942Z,-0.90
2018-02-20T00:44:56.472Z,-0.90
2018-02-20T00:47:26.947Z,-0.90
2018-02-20T00:49:57.916Z,-0.80
2018-02-20T00:52:28.495Z,-0.80
2018-02-20T00:54:58.720Z,-0.80
2018-02-20T00:57:29.005Z,-0.80
2018-02-20T00:59:59.205Z,-0.80
2018-02-20T01:02:29.979Z,-0.80
2018-02-20T01:05:00.444Z,-0.90
2018-02-20T01:07:31.004Z,-0.90
2018-02-20T01:10:01.980Z,-0.90
2018-02-20T01:12:32.670Z,-0.90
2018-02-20T01:15:02.882Z,-0.90
2018-02-20T01:17:33.275Z,-0.90
2018-02-20T01:20:03.639Z,-0.90
2018-02-20T01:22:34.631Z,-0.90
2018-02-20T01:25:04.902Z,-0.90
2018-02-20T01:27:35.191Z,-0.90
2018-02-20T01:30:05.551Z,-1.00
2018-02-20T01:32:35.693Z,-1.10
2018-02-20T01:35:05.858Z,-1.10
2018-02-20T01:37:36.547Z,-1.10
2018-02-20T01:40:07.500Z,-1.10
2018-02-20T01:42:38.166Z,-1.10
2018-02-20T01:45:08.341Z,-1.10
2018-02-20T01:47:38.628Z,-1.10
2018-02-20T01:50:09.747Z,-1.20
2018-02-20T01:52:40.558Z,-1.20
2018-02-20T01:55:11.079Z,-1.30
2018-02-20T01:57:41.422Z,-1.30
2018-02-20T02:00:12.254Z,-1.30
2018-02-20T02:02:42.286Z,-1.30
2018-02-20T02:05:12.492Z,-1.30
2018-02-20T02:07:42.830Z,-1.30
2018-02-20T02:10:13.120Z,-1.30
2018-02-20T02:12:43.685Z,-1.30
2018-02-20T02:15:13.999Z,-1.30
2018-02-20T02:17:43.964Z,-1.30
2018-02-20T02:20:16.280Z,-1.30
2018-02-20T02:22:47.308Z,-1.40
2018-02-20T02:25:17.551Z,-1.40
2018-02-20T02:27:47.867Z,-1.40
2018-02-20T02:30:18.080Z,-1.40
2018-02-20T02:32:48.685Z,-1.50
2018-02-20T02:35:19.459Z,-1.50
2018-02-20T02:37:49.765Z,-1.50
2018-02-20T02:40:20.183Z,-1.60
2018-02-20T02:42:50.463Z,-1.70
2018-02-20T02:45:20.625Z,-1.60
2018-02-20T02:47:51.008Z,-1.60
2018-02-20T02:50:21.222Z,-1.70
2018-02-20T02:52:51.994Z,-1.70
2018-02-20T02:55:22.099Z,-1.60
2018-02-20T02:57:52.458Z,-1.60
2018-02-20T03:00:22.908Z,-1.70
2018-02-20T03:02:54.290Z,-1.70
2018-02-20T03:05:24.650Z,-1.70
2018-02-20T03:07:55.019Z,-1.60
2018-02-20T03:10:25.587Z,-1.70
2018-02-20T03:12:55.635Z,-1.70
2018-02-20T03:15:25.944Z,-1.70
2018-02-20T03:17:55.939Z,-1.80
2018-02-20T03:20:27.353Z,-1.90
2018-02-20T03:22:57.767Z,-2.00
2018-02-20T03:25:27.990Z,-1.90
2018-02-20T03:27:57.984Z,-1.90
2018-02-20T03:30:27.992Z,-1.90
2018-02-20T03:32:58.208Z,-1.80
2018-02-20T03:35:28.684Z,-1.90
2018-02-20T03:38:00.707Z,-2.00
2018-02-20T03:40:30.823Z,-2.00
2018-02-20T03:43:00.929Z,-1.90
2018-02-20T03:45:31.670Z,-2.00
2018-02-20T03:48:01.787Z,-2.00
2018-02-20T03:50:32.108Z,-2.00
2018-02-20T03:53:02.348Z,-2.00
2018-02-20T03:55:33.162Z,-2.00
2018-02-20T03:58:04.502Z,-1.90
2018-02-20T04:00:34.843Z,-2.00
2018-02-20T04:03:05.327Z,-2.00
2018-02-20T04:05:36.261Z,-2.10
2018-02-20T04:08:07.832Z,-2.10
2018-02-20T04:10:39.073Z,-2.10
2018-02-20T04:13:10.704Z,-2.20
2018-02-20T04:15:41.090Z,-2.10
2018-02-20T04:18:11.400Z,-2.10
2018-02-20T04:20:41.658Z,-2.20
2018-02-20T04:23:11.979Z,-2.30
2018-02-20T04:25:42.326Z,-2.40
2018-02-20T04:28:12.736Z,-2.30
2018-02-20T04:30:43.072Z,-2.30
2018-02-20T04:33:13.329Z,-2.30
2018-02-20T04:35:43.473Z,-2.30
2018-02-20T04:38:13.955Z,-2.30
2018-02-20T04:40:44.946Z,-2.40
2018-02-20T04:43:15.863Z,-2.40
2018-02-20T04:45:46.135Z,-2.40
2018-02-20T04:48:16.525Z,-2.40
2018-02-20T04:50:46.938Z,-2.40
2018-02-20T04:53:18.998Z,-2.50
2018-02-20T04:55:49.942Z,-2.50
2018-02-20T04:58:20.280Z,-2.50
2018-02-20T05:00:51.197Z,-2.50
2018-02-20T05:03:21.520Z,-2.60
2018-02-20T05:05:52.550Z,-2.60
2018-02-20T05:08:23.551Z,-2.60
2018-02-20T05:10:53.846Z,-2.60
2018-02-20T05:13:23.861Z,-2.60
2018-02-20T05:15:54.119Z,-2.60
2018-02-20T05:18:24.858Z,-2.60
2018-02-20T05:20:55.348Z,-2.60
2018-02-20T05:23:25.545Z,-2.60
2018-02-20T05:25:55.542Z,-2.60
2018-02-20T05:28:26.603Z,-2.70
2018-02-20T05:30:57.402Z,-2.70
2018-02-20T05:33:28.412Z,-2.80
2018-02-20T05:35:58.954Z,-2.90
2018-02-20T05:38:29.705Z,-2.90
2018-02-20T05:40:59.690Z,-2.90
2018-02-20T05:43:29.744Z,-2.90
2018-02-20T05:46:00.947Z,-2.90
2018-02-20T05:48:30.924Z,-2.90
2018-02-20T05:51:01.356Z,-2.90
2018-02-20T05:53:31.672Z,-2.90
2018-02-20T05:56:01.644Z,-2.90
2018-02-20T05:58:31.624Z,-2.80
2018-02-20T06:01:01.647Z,-2.90
2018-02-20T06:03:31.623Z,-2.90
2018-02-20T06:06:01.980Z,-2.90
2018-02-20T06:08:32.084Z,-2.90
2018-02-20T06:11:02.140Z,-2.90
2018-02-20T06:13:32.355Z,-2.90
2018-02-20T06:16:02.442Z,-3.00
2018-02-20T06:18:32.453Z,-2.90
2018-02-20T06:21:02.790Z,-3.00
2018-02-20T06:23:32.980Z,-2.90
2018-02-20T06:26:03.651Z,-3.00
2018-02-20T06:28:33.830Z,-3.00
2018-02-20T06:31:05.056Z,-3.00
2018-02-20T06:33:35.092Z,-3.00
2018-02-20T06:36:06.240Z,-3.10
2018-02-20T06:38:36.839Z,-3.10
2018-02-20T06:41:07.018Z,-3.10
2018-02-20T06:43:37.072Z,-3.10
2018-02-20T06:46:07.670Z,-3.10
2018-02-20T06:48:38.030Z,-3.10
2018-02-20T06:51:08.502Z,-3.10
2018-02-20T06:53:38.544Z,-3.10
2018-02-20T06:56:08.623Z,-3.10
2018-02-20T06:58:39.494Z,-3.10
2018-02-20T07:01:09.507Z,-3.10
2018-02-20T07:03:39.634Z,-3.10
2018-02-20T07:06:09.685Z,-3.10
2018-02-20T07:08:40.011Z,-3.00
2018-02-20T07:11:10.043Z,-3.00
2018-02-20T07:13:40.914Z,-2.90
2018-02-20T07:16:12.167Z,-3.00
2018-02-20T07:18:42.275Z,-2.90
2018-02-20T07:21:12.359Z,-2.90
2018-02-20T07:23:42.403Z,-2.80
2018-02-20T07:26:12.743Z,-2.80
2018-02-20T07:28:42.847Z,-2.80
2018-02-20T07:31:12.856Z,-2.70
2018-02-20T07:33:43.666Z,-2.60
2018-02-20T07:36:14.839Z,-2.40
2018-02-20T07:38:44.907Z,-2.40
2018-02-20T07:41:14.937Z,-2.30
2018-02-20T07:43:44.934Z,-2.10
2018-02-20T07:46:15.055Z,-1.90
2018-02-20T07:48:45.885Z,-1.30
2018-02-20T07:51:16.704Z,-0.90
2018-02-20T07:53:47.002Z,-0.90
2018-02-20T07:56:17.093Z,-0.50
2018-02-20T07:58:48.160Z,0.40
2018-02-20T08:01:18.923Z,0.40
2018-02-20T08:03:49.179Z,0.80
2018-02-20T08:06:20.264Z,1.50
2018-02-20T08:08:50.379Z,1.50
2018-02-20T08:11:20.783Z,2.00
2018-02-20T08:13:51.656Z,2.80
2018-02-20T08:16:21.736Z,2.80
2018-02-20T08:18:51.943Z,3.10
2018-02-20T08:21:22.416Z,3.60
2018-02-20T08:23:52.471Z,3.90
2018-02-20T08:26:22.505Z,4.10
2018-02-20T08:28:53.744Z,4.90
2018-02-20T08:31:24.573Z,5.20
2018-02-20T08:33:54.679Z,5.20
2018-02-20T08:36:25.039Z,5.60
2018-02-20T08:38:55.878Z,6.20
2018-02-20T08:41:26.699Z,6.40
2018-02-20T08:43:57.548Z,6.70
2018-02-20T08:46:27.667Z,6.70
2018-02-20T08:48:58.492Z,7.20
2018-02-20T08:51:29.603Z,7.40
2018-02-20T08:53:59.711Z,7.40
2018-02-20T08:56:29.779Z,7.70
2018-02-20T08:59:00.686Z,8.30
2018-02-20T09:01:30.756Z,8.30
2018-02-20T09:04:00.819Z,8.60
2018-02-20T09:06:31.174Z,8.70
2018-02-20T09:09:02.109Z,9.20
2018-02-20T09:11:32.259Z,9.20
2018-02-20T09:14:02.306Z,9.60
2018-02-20T09:16:32.347Z,9.80
2018-02-20T09:19:02.382Z,9.90
2018-02-20T09:21:33.518Z,9.90
2018-02-20T09:24:03.549Z,9.90
2018-02-20T09:26:34.387Z,9.60
2018-02-20T09:29:05.350Z,8.90
2018-02-20T09:31:37.571Z,8.90
2018-02-20T09:34:07.625Z,9.10
2018-02-20T09:36:37.681Z,9.70
2018-02-20T09:39:07.747Z,10.00
2018-02-20T09:41:38.131Z,10.40
2018-02-20T09:44:08.281Z,10.40
2018-02-20T09:46:39.098Z,10.50
2018-02-20T09:49:09.126Z,10.60
2018-02-20T09:51:40.280Z,10.40
2018-02-20T09:54:11.178Z,10.80
2018-02-20T09:56:41.207Z,10.70
2018-02-20T09:59:11.268Z,11.10
2018-02-20T10:01:41.331Z,11.60
2018-02-20T10:04:11.427Z,11.40
2018-02-20T10:06:41.759Z,11.80
2018-02-20T10:09:11.843Z,11.10
2018-02-20T10:11:41.951Z,10.50
2018-02-20T10:14:12.260Z,10.30
2018-02-20T10:16:43.378Z,11.30
2018-02-20T10:19:13.618Z,11.30
2018-02-20T10:21:45.211Z,10.90
2018-02-20T10:24:15.392Z,10.90
2018-02-20T10:26:45.537Z,9.30
2018-02-20T10:29:16.643Z,10.50
2018-02-20T10:31:47.055Z,10.50
2018-02-20T10:34:17.160Z,11.20
2018-02-20T10:36:47.284Z,11.00
2018-02-20T10:39:17.682Z,10.00
2018-02-20T10:41:47.963Z,10.60
2018-02-20T10:44:18.970Z,10.30
2018-02-20T10:46:49.440Z,10.30
2018-02-20T10:49:20.340Z,10.70
2018-02-20T10:54:28.727Z,11.10
2018-02-20T10:56:59.232Z,11.30
2018-02-20T10:59:30.220Z,11.40
2018-02-20T11:02:00.681Z,11.90
2018-02-20T11:04:30.781Z,12.50
2018-02-20T11:07:00.890Z,12.90
2018-02-20T11:09:32.704Z,13.10
2018-02-20T11:12:03.535Z,11.80
2018-02-20T11:14:34.434Z,12.30
2018-02-20T11:17:05.111Z,12.30
2018-02-20T11:19:35.999Z,11.60
2018-02-20T11:22:06.127Z,11.50
2018-02-20T11:24:36.254Z,11.90
2018-02-20T11:27:08.256Z,11.70
2018-02-20T11:29:38.395Z,11.80
2018-02-20T11:32:08.519Z,12.00
2018-02-20T11:34:38.667Z,12.00
2018-02-20T11:37:09.207Z,11.90
2018-02-20T11:39:39.373Z,12.10
2018-02-20T11:42:09.608Z,12.10
2018-02-20T11:44:40.183Z,12.00
2018-02-20T11:47:10.299Z,11.90
2018-02-20T11:49:40.349Z,11.90
2018-02-20T11:52:10.605Z,11.80
2018-02-20T11:54:41.111Z,11.90
2018-02-20T11:57:11.803Z,12.10
2018-02-20T11:59:41.950Z,12.00
2018-02-20T12:02:12.279Z,11.80
2018-02-20T12:04:43.632Z,12.10
2018-02-20T12:07:13.889Z,12.10
2018-02-20T12:09:44.096Z,12.10
2018-02-20T12:12:14.330Z,12.20
2018-02-20T12:14:45.422Z,12.40
2018-02-20T12:17:16.447Z,12.30
2018-02-20T12:19:46.916Z,12.30
2018-02-20T12:22:17.097Z,11.90
2018-02-20T12:24:47.231Z,11.50
2018-02-20T12:27:18.481Z,11.80
2018-02-20T12:29:49.426Z,11.60
2018-02-20T12:32:20.190Z,11.60
2018-02-20T12:34:50.710Z,11.70
2018-02-20T12:37:20.907Z,11.70
2018-02-20T12:39:51.799Z,11.60
2018-02-20T12:42:22.067Z,11.60
2018-02-20T12:44:52.323Z,11.50
2018-02-20T12:47:22.412Z,11.80
2018-02-20T12:49:52.473Z,12.10
2018-02-20T12:52:22.875Z,11.90
2018-02-20T12:54:53.003Z,12.10
2018-02-20T12:57:23.503Z,11.50
2018-02-20T12:59:54.480Z,11.20
2018-02-20T13:02:24.749Z,10.90
2018-02-20T13:04:55.587Z,11.10
2018-02-20T13:07:26.885Z,11.50
2018-02-20T13:09:57.049Z,11.50
2018-02-20T13:12:27.213Z,11.30
2018-02-20T13:14:57.315Z,11.10
2018-02-20T13:17:27.572Z,10.90
2018-02-20T13:19:57.796Z,10.90
2018-02-20T13:22:28.131Z,10.70
2018-02-20T13:24:58.680Z,10.50
2018-02-20T13:27:29.571Z,11.00
2018-02-20T13:30:00.316Z,10.90
2018-02-20T13:32:30.824Z,10.90
2018-02-20T13:39:32.167Z,10.80
2018-02-20T13:42:13.245Z,10.60
2018-02-20T13:49:14.191Z,10.40
2018-02-20T13:51:44.575Z,10.20
2018-02-20T13:54:14.704Z,10.10
2018-02-20T13:56:45.589Z,10.20
2018-02-20T13:59:16.442Z,10.00
2018-02-20T14:01:47.267Z,9.60
2018-02-20T14:04:18.139Z,9.80
2018-02-20T14:06:48.560Z,9.80
2018-02-20T14:09:18.712Z,10.20
2018-02-20T14:11:50.203Z,10.10
2018-02-20T14:14:20.534Z,9.70
2018-02-20T14:16:52.012Z,9.20
2018-02-20T14:19:22.139Z,9.20
2018-02-20T14:21:52.284Z,8.90
2018-02-20T14:24:23.173Z,8.40
2018-02-20T14:26:53.218Z,8.30
2018-02-20T14:29:23.705Z,8.20
2018-02-20T14:31:53.779Z,8.20
2018-02-20T14:34:23.827Z,8.10
2018-02-20T14:36:54.646Z,7.90
2018-02-20T14:39:25.199Z,7.80
2018-02-20T14:41:56.123Z,7.80
2018-02-20T14:44:28.212Z,7.80
2018-02-20T14:46:59.400Z,7.90
2018-02-20T14:49:29.782Z,7.90
2018-02-20T14:52:00.104Z,7.70
2018-02-20T14:54:30.823Z,7.40
2018-02-20T14:57:02.308Z,7.10
2018-02-20T14:59:32.667Z,7.10
2018-02-20T15:02:03.709Z,7.00
2018-02-20T15:04:33.755Z,7.00
2018-02-20T15:07:03.871Z,6.70
2018-02-20T15:09:34.759Z,6.40
2018-02-20T15:12:05.182Z,6.40
2018-02-20T15:14:36.259Z,6.70
2018-02-20T15:17:06.456Z,6.70
2018-02-20T15:19:36.677Z,6.70
2018-02-20T15:22:06.889Z,6.90
2018-02-20T15:24:37.074Z,6.90
2018-02-20T15:27:08.031Z,6.60
2018-02-20T15:29:38.128Z,6.50
2018-02-20T15:32:09.110Z,6.10
2018-02-20T15:34:39.457Z,6.10
2018-02-20T15:37:09.575Z,5.90
2018-02-20T15:39:39.596Z,5.90
2018-02-20T15:42:09.657Z,5.80
2018-02-20T15:44:40.240Z,5.90
2018-02-20T15:47:10.312Z,5.70
2018-02-20T15:49:40.792Z,5.60
2018-02-20T15:52:13.176Z,5.60
2018-02-20T15:54:43.308Z,5.50
2018-02-20T15:57:15.978Z,5.60
2018-02-20T15:59:46.942Z,5.50
2018-02-20T16:02:17.341Z,5.40
2018-02-20T16:04:48.252Z,5.30
2018-02-20T16:07:18.439Z,5.30
2018-02-20T16:09:48.891Z,5.30
2018-02-20T16:12:19.003Z,5.30
2018-02-20T16:14:49.127Z,5.30
2018-02-20T16:17:19.663Z,5.30
2018-02-20T16:19:49.831Z,5.10
2018-02-20T16:22:20.763Z,5.00
2018-02-20T16:24:51.663Z,5.00
2018-02-20T16:27:22.141Z,5.00
2018-02-20T16:29:52.194Z,5.00
2018-02-20T16:32:22.247Z,5.00
2018-02-20T16:34:52.300Z,5.00
2018-02-20T16:37:22.467Z,5.00
2018-02-20T16:39:52.643Z,4.90
2018-02-20T16:42:22.992Z,4.80
2018-02-20T16:44:53.196Z,4.70
2018-02-20T16:47:23.337Z,4.70
2018-02-20T16:49:53.699Z,4.60
2018-02-20T16:52:24.480Z,4.60
2018-02-20T16:54:54.557Z,4.50
2018-02-20T16:57:25.759Z,4.30
2018-02-20T16:59:56.858Z,4.30
2018-02-20T17:02:26.941Z,4.30
2018-02-20T17:04:57.089Z,4.20
2018-02-20T17:07:28.071Z,4.00
2018-02-20T17:09:59.496Z,4.00
2018-02-20T17:12:30.586Z,3.70
2018-02-20T17:15:01.035Z,3.70
2018-02-20T17:17:31.278Z,3.70
2018-02-20T17:20:06.160Z,3.60
2018-02-20T17:22:40.639Z,3.60
2018-02-20T17:25:12.008Z,3.40
2018-02-20T17:27:43.440Z,3.40
2018-02-20T17:30:13.500Z,3.30
2018-02-20T17:32:43.556Z,3.20
2018-02-20T17:35:13.660Z,3.10
2018-02-20T17:37:43.761Z,3.10
2018-02-20T17:40:13.817Z,3.00
2018-02-20T17:42:44.711Z,2.90
2018-02-20T17:45:16.753Z,2.90
2018-02-20T17:47:47.340Z,2.90
2018-02-20T17:50:18.267Z,2.90
2018-02-20T17:52:49.071Z,2.90
2018-02-20T17:55:19.536Z,2.90
2018-02-20T17:57:50.864Z,2.80
2018-02-20T18:00:21.928Z,2.70
2018-02-20T18:02:52.347Z,2.70
2018-02-20T18:05:23.171Z,2.70
2018-02-20T18:07:54.106Z,2.60
2018-02-20T18:10:26.651Z,2.50
2018-02-20T18:12:56.860Z,2.40
2018-02-20T18:15:27.362Z,2.40
2018-02-20T18:17:58.249Z,2.30
2018-02-20T18:20:28.625Z,2.30
2018-02-20T18:22:58.715Z,2.30
2018-02-20T18:25:28.828Z,2.10
2018-02-20T18:27:59.484Z,2.10
2018-02-20T18:30:29.516Z,2.00
2018-02-20T18:33:01.169Z,1.90
2018-02-20T18:35:31.482Z,1.90
2018-02-20T18:38:01.840Z,1.90
2018-02-20T18:40:32.394Z,1.80
2018-02-20T18:43:02.491Z,1.70
2018-02-20T18:52:17.444Z,1.60
2018-02-20T18:54:47.785Z,1.40
2018-02-20T18:57:17.901Z,1.50
2018-02-20T18:59:48.098Z,1.50
2018-02-20T19:02:19.396Z,1.40
2018-02-20T19:04:49.686Z,1.40
2018-02-20T19:07:20.475Z,1.40
2018-02-20T19:09:50.556Z,1.40
2018-02-20T19:12:20.593Z,1.40
2018-02-20T19:14:50.961Z,1.40
2018-02-20T19:17:21.117Z,1.30
2018-02-20T19:19:52.969Z,1.40
2018-02-20T19:22:23.754Z,1.40
2018-02-20T19:24:53.875Z,1.40
2018-02-20T19:27:23.916Z,1.30
2018-02-20T19:29:54.151Z,1.30
2018-02-20T19:32:24.903Z,1.40
2018-02-20T19:34:55.632Z,1.40
2018-02-20T19:37:26.431Z,1.20
2018-02-20T19:39:56.520Z,1.20
2018-02-20T19:42:26.580Z,1.20
2018-02-20T19:44:57.438Z,1.10
2018-02-20T19:47:28.160Z,1.10
2018-02-20T19:49:58.971Z,1.10
2018-02-20T19:52:29.004Z,1.10
2018-02-20T19:54:59.787Z,1.00
2018-02-20T19:57:30.347Z,1.00
2018-02-20T20:00:00.368Z,1.10
2018-02-20T20:02:31.011Z,1.00
2018-02-20T20:05:02.067Z,0.90
2018-02-20T20:07:32.111Z,0.90
2018-02-20T20:10:02.523Z,0.90
2018-02-20T20:12:32.653Z,0.90
2018-02-20T20:15:03.100Z,0.90
2018-02-20T20:17:33.133Z,0.90
2018-02-20T20:20:03.303Z,0.90
2018-02-20T20:22:33.980Z,0.80
2018-02-20T20:25:05.894Z,0.90
2018-02-20T20:27:36.147Z,0.90
2018-02-20T20:30:06.589Z,0.80
2018-02-20T20:32:37.038Z,0.80
2018-02-20T20:35:08.463Z,0.80
2018-02-20T20:37:39.831Z,0.70
2018-02-20T20:40:11.474Z,0.70
2018-02-20T20:42:41.859Z,0.70
2018-02-20T20:45:12.563Z,0.70
2018-02-20T20:47:42.789Z,0.60
2018-02-20T20:50:13.181Z,0.60
2018-02-20T20:52:43.338Z,0.70
2018-02-20T20:55:14.301Z,0.60
2018-02-20T20:57:44.586Z,0.60
2018-02-20T21:00:15.982Z,0.50
2018-02-20T21:02:46.356Z,0.50
2018-02-20T21:05:17.272Z,0.50
2018-02-20T21:07:47.298Z,0.40
2018-02-20T21:10:17.392Z,0.40
2018-02-20T21:12:47.424Z,0.40
2018-02-20T21:15:18.055Z,0.30
2018-02-20T21:17:48.439Z,0.30
2018-02-20T21:20:19.624Z,0.40
2018-02-20T21:22:50.311Z,0.30
2018-02-20T21:25:20.370Z,0.30
2018-02-20T21:27:51.710Z,0.30
2018-02-20T21:30:22.147Z,0.30
2018-02-20T21:32:52.227Z,0.20
2018-02-20T21:35:22.441Z,0.20
2018-02-20T21:37:52.591Z,0.20
2018-02-20T21:40:23.351Z,0.20
2018-02-20T21:42:53.416Z,0.20
2018-02-20T21:48:04.836Z,0.20
2018-02-20T21:50:34.863Z,0.10
2018-02-20T21:53:04.984Z,0.00
2018-02-20T21:55:35.476Z,0.00
2018-02-20T21:58:05.561Z,0.00
2018-02-20T22:00:37.000Z,0.00
2018-02-20T22:03:08.290Z,0.00
2018-02-20T22:05:38.451Z,0.00
2018-02-20T22:08:08.516Z,0.00
2018-02-20T22:10:39.028Z,-0.10
2018-02-20T22:13:09.116Z,-0.20
2018-02-20T22:15:39.237Z,-0.20
2018-02-20T22:18:10.637Z,-0.20
2018-02-20T22:20:41.067Z,-0.20
2018-02-20T22:23:11.419Z,-0.20
2018-02-20T22:25:41.483Z,-0.30
2018-02-20T22:28:12.985Z,-0.30
2018-02-20T22:30:43.046Z,-0.30
2018-02-20T22:33:18.110Z,-0.30
2018-02-20T22:35:55.140Z,-0.30
2018-02-20T22:38:29.274Z,-0.30
2018-02-20T22:41:04.819Z,-0.40
2018-02-20T22:43:36.108Z,-0.50
2018-02-20T22:46:06.238Z,-0.50
2018-02-20T22:48:36.804Z,-0.50
2018-02-20T22:51:06.849Z,-0.50
2018-02-20T22:53:36.968Z,-0.50
2018-02-20T22:56:07.564Z,-0.50
2018-02-20T22:58:37.827Z,-0.60
2018-02-20T23:01:09.391Z,-0.70
2018-02-20T23:03:39.787Z,-0.70
2018-02-20T23:06:11.267Z,-0.80
2018-02-20T23:08:41.723Z,-0.80
2018-02-20T23:11:13.713Z,-0.80
2018-02-20T23:13:45.506Z,-0.80
2018-02-20T23:16:16.084Z,-0.80
2018-02-20T23:18:46.602Z,-0.80
2018-02-20T23:21:16.572Z,-0.80
2018-02-20T23:23:46.923Z,-0.80
2018-02-20T23:26:17.071Z,-0.80
2018-02-20T23:28:49.230Z,-0.90
2018-02-20T23:31:19.356Z,-0.90
2018-02-20T23:33:49.735Z,-0.90
2018-02-20T23:36:20.251Z,-1.00
2018-02-20T23:38:50.390Z,-1.00
2018-02-20T23:41:20.484Z,-1.10
2018-02-20T23:43:51.278Z,-1.10
2018-02-20T23:46:21.684Z,-1.10
2018-02-20T23:48:51.996Z,-1.10
2018-02-20T23:51:26.352Z,-1.00
2018-02-20T23:53:56.619Z,-1.00
2018-02-20T23:56:26.927Z,-0.90
2018-02-20T23:58:58.383Z,-1.00
